createdAt,value
2018-10-21T00:00:56.830Z,77978.93
2018-10-21T00:03:24.555Z,77976.92
2018-10-21T00:05:52.361Z,77979.93
2018-10-21T00:08:19.210Z,77980.93
2018-10-21T00:10:46.644Z,77977.93
2018-10-21T00:13:14.977Z,77981.94
2018-10-21T00:15:42.831Z,77987.94
2018-10-21T00:18:09.541Z,77987.94
2018-10-21T00:20:37.438Z,77988.94
2018-10-21T00:23:05.439Z,77989.94
2018-10-21T00:25:33.106Z,77987.94
2018-10-21T00:28:00.899Z,77984.94
2018-10-21T00:30:28.548Z,77987.94
2018-10-21T00:32:56.414Z,77989.94
2018-10-21T00:35:24.195Z,77990.94
2018-10-21T00:37:51.845Z,77991.94
2018-10-21T00:40:19.704Z,77994.95
2018-10-21T00:42:47.401Z,77992.95
2018-10-21T00:45:15.125Z,77995.95
2018-10-21T00:47:43.740Z,78001.95
2018-10-21T00:50:11.501Z,77995.95
2018-10-21T00:52:39.458Z,77995.95
2018-10-21T00:55:07.981Z,77995.95
2018-10-21T00:57:35.724Z,78000.95
2018-10-21T01:00:03.688Z,77998.95
2018-10-21T01:02:30.517Z,77995.95
2018-10-21T01:04:57.351Z,77990.94
2018-10-21T01:07:24.173Z,77990.94
2018-10-21T01:09:51.006Z,77992.95
2018-10-21T01:12:18.836Z,77993.95
2018-10-21T01:14:46.560Z,77996.95
2018-10-21T01:17:14.486Z,78007.96
2018-10-21T01:19:41.672Z,77997.95
2018-10-21T01:22:08.518Z,77996.95
2018-10-21T01:24:35.351Z,77996.95
2018-10-21T01:27:03.191Z,77996.95
2018-10-21T01:29:31.089Z,77993.95
2018-10-21T01:31:58.034Z,77995.95
2018-10-21T01:34:24.876Z,78003.95
2018-10-21T01:36:52.752Z,78002.95
2018-10-21T01:39:22.861Z,77995.95
2018-10-21T01:41:49.734Z,77993.95
2018-10-21T01:44:16.569Z,77996.95
2018-10-21T01:46:43.593Z,77991.94
2018-10-21T01:49:10.428Z,77992.95
2018-10-21T01:51:37.257Z,77997.95
2018-10-21T01:54:04.395Z,77996.95
2018-10-21T01:56:31.224Z,77991.94
2018-10-21T01:58:58.049Z,77989.94
2018-10-21T02:01:24.883Z,77982.94
2018-10-21T02:03:52.273Z,77979.93
2018-10-21T02:06:19.110Z,77983.94
2018-10-21T02:08:45.936Z,77987.94
2018-10-21T02:11:14.176Z,77988.94
2018-10-21T02:13:41.015Z,77987.94
2018-10-21T02:16:08.780Z,77989.94
2018-10-21T02:18:36.387Z,77985.94
2018-10-21T02:21:04.165Z,77984.94
2018-10-21T02:23:30.980Z,77985.94
2018-10-21T02:25:58.272Z,77985.94
2018-10-21T02:28:26.112Z,77988.94
2018-10-21T02:30:53.021Z,77994.95
2018-10-21T02:33:19.911Z,77999.95
2018-10-21T02:35:46.854Z,77995.95
2018-10-21T02:38:14.514Z,77996.95
2018-10-21T02:41:47.296Z,78003.95
2018-10-21T02:44:19.077Z,77996.95
2018-10-21T02:46:46.513Z,78007.96
2018-10-21T02:49:14.523Z,78014.97
2018-10-21T02:51:41.351Z,78013.97
2018-10-21T02:54:08.477Z,78008.96
2018-10-21T02:56:35.312Z,78008.96
2018-10-21T02:59:02.142Z,78004.95
2018-10-21T03:01:28.980Z,78009.97
2018-10-21T03:03:55.807Z,78013.97
2018-10-21T03:06:23.607Z,78019.97
2018-10-21T03:08:51.241Z,78023.98
2018-10-21T03:11:18.901Z,78021.98
2018-10-21T03:13:45.834Z,78021.98
2018-10-21T03:16:12.674Z,78024.98
2018-10-21T03:18:39.537Z,78022.98
2018-10-21T03:21:06.482Z,78024.98
2018-10-21T03:23:33.813Z,78031.98
2018-10-21T03:26:00.900Z,78028.98
2018-10-21T03:28:28.690Z,78029.98
2018-10-21T03:30:55.514Z,78027.98
2018-10-21T03:33:23.708Z,78022.98
2018-10-21T03:35:50.429Z,78019.97
2018-10-21T03:38:17.272Z,78019.97
2018-10-21T03:40:44.492Z,78022.98
2018-10-21T03:43:11.409Z,78021.98
2018-10-21T03:45:39.183Z,78024.98
2018-10-21T03:48:07.008Z,78023.98
2018-10-21T03:50:34.689Z,78034.99
2018-10-21T03:53:02.498Z,78035.99
2018-10-21T03:55:30.474Z,78035.99
2018-10-21T03:58:01.274Z,78035.99
2018-10-21T04:00:28.117Z,78038.00
2018-10-21T04:02:54.937Z,78039.00
2018-10-21T04:05:22.614Z,78041.00
2018-10-21T04:07:50.334Z,78043.00
2018-10-21T04:10:17.183Z,78046.00
2018-10-21T04:12:44.952Z,78050.01
2018-10-21T04:15:12.698Z,78048.00
2018-10-21T04:17:40.411Z,78046.00
2018-10-21T04:20:08.655Z,78046.00
2018-10-21T04:22:52.263Z,78049.01
2018-10-21T04:25:19.736Z,78056.02
2018-10-21T04:27:46.555Z,78049.01
2018-10-21T04:30:17.439Z,78052.02
2018-10-21T04:32:45.681Z,78048.00
2018-10-21T04:35:14.225Z,78043.00
2018-10-21T04:37:46.636Z,78048.00
2018-10-21T04:40:15.903Z,78051.01
2018-10-21T04:42:43.500Z,78055.02
2018-10-21T04:45:11.090Z,78048.00
2018-10-21T04:47:38.955Z,78049.01
2018-10-21T04:50:07.313Z,78048.00
2018-10-21T04:52:34.960Z,78053.02
2018-10-21T04:55:16.840Z,78054.02
2018-10-21T04:57:44.881Z,78052.02
2018-10-21T05:00:14.299Z,78050.01
2018-10-21T05:02:42.069Z,78052.02
2018-10-21T05:05:11.059Z,78049.01
2018-10-21T05:07:39.076Z,78046.00
2018-10-21T05:10:08.450Z,78046.00
2018-10-21T05:12:35.312Z,78044.00
2018-10-21T05:15:03.148Z,78040.00
2018-10-21T05:17:30.969Z,78048.00
2018-10-21T05:19:58.707Z,78051.01
2018-10-21T05:22:25.546Z,78058.02
2018-10-21T05:24:52.410Z,78058.02
2018-10-21T05:27:19.249Z,78054.02
2018-10-21T05:29:46.066Z,78058.02
2018-10-21T05:32:13.834Z,78060.02
2018-10-21T05:34:41.559Z,78058.02
2018-10-21T05:37:09.247Z,78065.03
2018-10-21T05:39:37.089Z,78069.03
2018-10-21T05:42:04.845Z,78067.03
2018-10-21T05:44:32.562Z,78067.03
2018-10-21T05:46:59.404Z,78072.03
2018-10-21T05:49:26.255Z,78068.03
2018-10-21T05:51:53.093Z,78072.03
2018-10-21T05:54:20.300Z,78077.05
2018-10-21T05:56:49.907Z,78084.05
2018-10-21T05:59:18.466Z,78080.05
2018-10-21T06:01:46.134Z,78084.05
2018-10-21T06:04:14.274Z,78089.05
2018-10-21T06:06:41.075Z,78090.05
2018-10-21T06:09:08.780Z,78092.06
2018-10-21T06:11:35.698Z,78090.05
2018-10-21T06:14:02.616Z,78093.06
2018-10-21T06:16:34.012Z,78094.06
2018-10-21T06:19:05.381Z,78098.06
2018-10-21T06:21:32.228Z,78105.08
2018-10-21T06:23:59.070Z,78103.07
2018-10-21T06:26:25.943Z,78102.07
2018-10-21T06:28:52.785Z,78102.07
2018-10-21T06:31:19.619Z,78100.06
2018-10-21T06:33:46.737Z,78102.07
2018-10-21T06:36:14.553Z,78108.08
2018-10-21T06:38:41.377Z,78111.08
2018-10-21T06:41:08.196Z,78114.08
2018-10-21T06:43:35.818Z,78113.08
2018-10-21T06:46:03.459Z,78118.09
2018-10-21T06:48:31.366Z,78107.08
2018-10-21T06:50:59.190Z,78116.09
2018-10-21T06:53:26.088Z,78122.09
2018-10-21T06:55:53.986Z,78123.09
2018-10-21T06:58:20.852Z,78124.09
2018-10-21T07:00:47.681Z,78114.08
2018-10-21T07:03:15.171Z,78113.08
2018-10-21T07:06:24.607Z,78112.08
2018-10-21T07:08:53.727Z,78116.09
2018-10-21T07:11:20.552Z,78116.09
2018-10-21T07:13:48.317Z,78122.09
2018-10-21T07:16:15.421Z,78127.09
2018-10-21T07:18:44.009Z,78131.10
2018-10-21T07:21:11.683Z,78131.10
2018-10-21T07:23:38.947Z,78132.11
2018-10-21T07:26:05.858Z,78130.10
2018-10-21T07:28:32.789Z,78140.11
2018-10-21T07:30:59.619Z,78148.13
2018-10-21T07:33:27.403Z,78146.13
2018-10-21T07:35:55.206Z,78146.13
2018-10-21T07:38:22.053Z,78137.11
2018-10-21T07:40:49.043Z,78144.12
2018-10-21T07:43:16.954Z,78145.12
2018-10-21T07:45:45.810Z,78144.12
2018-10-21T07:48:13.913Z,78142.12
2018-10-21T07:50:41.676Z,78143.12
2018-10-21T07:53:08.556Z,78138.11
2018-10-21T07:55:35.400Z,78135.11
2018-10-21T07:58:02.384Z,78143.12
2018-10-21T08:00:29.244Z,78142.12
2018-10-21T08:02:56.165Z,78139.11
2018-10-21T08:05:28.847Z,78139.11
2018-10-21T08:08:01.466Z,78138.11
2018-10-21T08:10:28.502Z,78136.11
2018-10-21T08:12:55.384Z,78140.11
2018-10-21T08:15:22.239Z,78146.13
2018-10-21T08:17:49.223Z,78146.13
2018-10-21T08:20:16.179Z,78144.12
2018-10-21T08:22:44.604Z,78138.11
2018-10-21T08:25:11.441Z,78133.11
2018-10-21T08:27:38.285Z,78136.11
2018-10-21T08:30:05.989Z,78143.12
2018-10-21T08:32:32.839Z,78142.12
2018-10-21T08:35:00.586Z,78140.11
2018-10-21T08:37:27.453Z,78136.11
2018-10-21T08:39:54.329Z,78165.14
2018-10-21T08:42:22.119Z,78159.14
2018-10-21T08:44:48.957Z,78152.13
2018-10-21T08:47:15.793Z,78147.13
2018-10-21T08:49:44.078Z,78140.11
2018-10-21T08:52:11.063Z,78132.11
2018-10-21T08:54:37.821Z,78132.11
2018-10-21T08:57:04.999Z,78130.10
2018-10-21T08:59:31.830Z,78127.09
2018-10-21T09:01:58.738Z,78129.10
2018-10-21T09:04:25.613Z,78128.09
2018-10-21T09:06:53.423Z,78131.10
2018-10-21T09:09:20.299Z,78132.11
2018-10-21T09:11:48.365Z,78140.11
2018-10-21T09:14:15.236Z,78133.11
2018-10-21T09:16:42.212Z,78130.10
2018-10-21T09:19:09.814Z,78132.11
2018-10-21T09:21:37.635Z,78131.10
2018-10-21T09:24:05.305Z,78131.10
2018-10-21T09:26:33.152Z,78131.10
2018-10-21T09:29:00.009Z,78134.11
2018-10-21T09:31:27.910Z,78135.11
2018-10-21T09:33:55.694Z,78132.11
2018-10-21T09:36:22.526Z,78134.11
2018-10-21T09:38:49.414Z,78134.11
2018-10-21T09:41:16.280Z,78134.11
2018-10-21T09:43:44.766Z,78132.11
2018-10-21T09:46:11.736Z,78130.10
2018-10-21T09:48:38.550Z,78128.09
2018-10-21T09:51:06.111Z,78128.09
2018-10-21T09:53:33.165Z,78132.11
2018-10-21T09:56:00.100Z,78125.09
2018-10-21T09:58:27.146Z,78124.09
2018-10-21T10:00:59.518Z,78115.09
2018-10-21T10:03:26.487Z,78108.08
2018-10-21T10:05:54.249Z,78110.08
2018-10-21T10:08:21.093Z,78110.08
2018-10-21T10:10:47.935Z,78115.09
2018-10-21T10:13:16.558Z,78106.08
2018-10-21T10:15:43.622Z,78096.06
2018-10-21T10:18:10.473Z,78095.06
2018-10-21T10:20:37.327Z,78089.05
2018-10-21T10:23:04.523Z,78086.05
2018-10-21T10:25:31.307Z,78080.05
2018-10-21T10:27:59.170Z,78077.05
2018-10-21T10:30:26.184Z,78079.05
2018-10-21T10:32:52.993Z,78076.04
2018-10-21T10:35:19.842Z,78072.03
2018-10-21T10:37:46.661Z,78068.03
2018-10-21T10:40:14.756Z,78069.03
2018-10-21T10:42:41.776Z,78072.03
2018-10-21T10:45:08.651Z,78073.03
2018-10-21T10:47:35.711Z,78068.03
2018-10-21T10:50:03.786Z,78068.03
2018-10-21T10:52:30.634Z,78059.02
2018-10-21T10:54:57.494Z,78060.02
2018-10-21T10:57:24.341Z,78060.02
2018-10-21T10:59:51.342Z,78063.02
2018-10-21T11:02:19.213Z,78060.02
2018-10-21T11:04:47.099Z,78065.03
2018-10-21T11:07:14.530Z,78059.02
2018-10-21T11:09:41.389Z,78052.02
2018-10-21T11:12:08.222Z,78052.02
2018-10-21T11:14:36.158Z,78050.01
2018-10-21T11:17:03.044Z,78050.01
2018-10-21T11:19:29.880Z,78050.01
2018-10-21T11:21:56.752Z,78056.02
2018-10-21T11:24:23.599Z,78052.02
2018-10-21T11:26:51.389Z,78052.02
2018-10-21T11:29:19.058Z,78044.00
2018-10-21T11:31:45.897Z,78039.00
2018-10-21T11:34:12.804Z,78039.00
2018-10-21T11:36:40.928Z,78028.98
2018-10-21T11:39:09.335Z,78023.98
2018-10-21T11:41:36.220Z,78013.97
2018-10-21T11:44:04.004Z,78023.98
2018-10-21T11:46:30.965Z,78021.98
2018-10-21T11:48:57.803Z,78017.97
2018-10-21T11:51:25.661Z,78019.97
2018-10-21T11:53:52.491Z,78019.97
2018-10-21T11:56:19.376Z,78018.97
2018-10-21T11:58:46.194Z,78018.97
2018-10-21T12:01:13.682Z,78023.98
2018-10-21T12:03:40.914Z,78021.98
2018-10-21T12:06:08.750Z,78014.97
2018-10-21T12:08:35.628Z,78020.98
2018-10-21T12:11:02.491Z,78015.97
2018-10-21T12:13:29.408Z,78014.97
2018-10-21T12:15:56.370Z,78019.97
2018-10-21T12:18:24.259Z,78020.98
2018-10-21T12:20:51.087Z,78016.97
2018-10-21T12:23:18.002Z,78017.97
2018-10-21T12:25:44.940Z,78019.97
2018-10-21T12:28:11.791Z,78008.96
2018-10-21T12:30:38.637Z,78014.97
2018-10-21T12:33:05.516Z,78012.97
2018-10-21T12:35:33.133Z,78011.97
2018-10-21T12:38:00.021Z,78013.97
2018-10-21T12:40:26.856Z,78007.96
2018-10-21T12:42:53.670Z,78010.97
2018-10-21T12:45:20.598Z,78005.95
2018-10-21T12:47:47.509Z,78009.97
2018-10-21T12:50:15.262Z,78007.96
2018-10-21T12:52:42.094Z,78003.95
2018-10-21T12:55:10.064Z,78003.95
2018-10-21T12:57:36.924Z,77998.95
2018-10-21T13:00:03.804Z,77999.95
2018-10-21T13:02:30.663Z,78000.95
2018-10-21T13:04:58.496Z,77985.94
2018-10-21T13:07:25.337Z,77985.94
2018-10-21T13:09:52.175Z,77979.93
2018-10-21T13:12:19.024Z,77978.93
2018-10-21T13:14:45.849Z,77974.92
2018-10-21T13:17:12.688Z,77975.92
2018-10-21T13:19:39.580Z,77976.92
2018-10-21T13:22:06.518Z,77973.92
2018-10-21T13:24:33.357Z,77970.92
2018-10-21T13:27:00.182Z,77974.92
2018-10-21T13:29:27.015Z,77976.92
2018-10-21T13:31:53.858Z,77968.92
2018-10-21T13:34:21.707Z,77967.92
2018-10-21T13:36:49.721Z,77966.91
2018-10-21T13:39:17.594Z,77971.92
2018-10-21T13:41:45.472Z,77967.92
2018-10-21T13:44:12.297Z,77960.91
2018-10-21T13:46:40.731Z,77961.91
2018-10-21T13:49:07.605Z,77963.91
2018-10-21T13:51:35.757Z,77962.91
2018-10-21T13:54:03.551Z,77959.91
2018-10-21T13:56:31.274Z,77954.90
2018-10-21T13:58:58.124Z,77959.91
2018-10-21T14:01:26.028Z,77958.91
2018-10-21T14:03:53.843Z,77955.91
2018-10-21T14:06:20.783Z,77952.90
2018-10-21T14:08:48.622Z,77953.90
2018-10-21T14:11:15.509Z,77956.91
2018-10-21T14:13:44.024Z,77958.91
2018-10-21T14:16:11.544Z,77951.89
2018-10-21T14:18:39.311Z,77950.89
2018-10-21T14:21:07.083Z,77953.90
2018-10-21T14:23:33.931Z,77948.89
2018-10-21T14:26:01.693Z,77949.89
2018-10-21T14:28:29.433Z,77950.89
2018-10-21T14:30:57.218Z,77949.89
2018-10-21T14:33:25.009Z,77949.89
2018-10-21T14:35:52.675Z,77946.89
2018-10-21T14:38:19.569Z,77940.88
2018-10-21T14:40:46.458Z,77949.89
2018-10-21T14:43:14.035Z,77947.89
2018-10-21T14:45:40.900Z,77945.89
2018-10-21T14:48:07.935Z,77945.89
2018-10-21T14:50:35.549Z,77942.89
2018-10-21T14:53:03.295Z,77944.89
2018-10-21T14:55:30.148Z,77937.88
2018-10-21T14:57:57.784Z,77937.88
2018-10-21T15:00:25.738Z,77935.88
2018-10-21T15:02:52.469Z,77935.88
2018-10-21T15:05:20.118Z,77930.88
2018-10-21T15:07:48.036Z,77934.88
2018-10-21T15:10:15.912Z,77939.88
2018-10-21T15:12:44.433Z,77931.88
2018-10-21T15:15:12.149Z,77938.88
2018-10-21T15:17:39.230Z,77935.88
2018-10-21T15:20:06.812Z,77935.88
2018-10-21T15:22:33.642Z,77932.88
2018-10-21T15:25:00.519Z,77933.88
2018-10-21T15:27:28.392Z,77935.88
2018-10-21T15:29:55.380Z,77933.88
2018-10-21T15:32:23.404Z,77934.88
2018-10-21T15:34:50.316Z,77934.88
2018-10-21T15:37:17.158Z,77934.88
2018-10-21T15:39:45.030Z,77931.88
2018-10-21T15:42:11.970Z,77925.87
2018-10-21T15:44:38.789Z,77925.87
2018-10-21T15:47:05.907Z,77925.87
2018-10-21T15:49:32.839Z,77929.88
2018-10-21T15:52:00.694Z,77934.88
2018-10-21T15:54:27.619Z,77928.88
2018-10-21T15:56:55.432Z,77922.86
2018-10-21T15:59:22.312Z,77916.86
2018-10-21T16:01:49.151Z,77917.86
2018-10-21T16:04:16.111Z,77928.88
2018-10-21T16:06:43.471Z,77930.88
2018-10-21T16:09:12.189Z,77927.88
2018-10-21T16:11:39.289Z,77930.88
2018-10-21T16:14:07.092Z,77935.88
2018-10-21T16:16:33.946Z,77933.88
2018-10-21T16:19:01.817Z,77932.88
2018-10-21T16:21:28.669Z,77934.88
2018-10-21T16:23:55.505Z,77929.88
2018-10-21T16:26:23.354Z,77937.88
2018-10-21T16:28:51.252Z,77938.88
2018-10-21T16:31:19.151Z,77941.89
2018-10-21T16:33:47.003Z,77937.88
2018-10-21T16:36:14.761Z,77936.88
2018-10-21T16:38:41.644Z,77939.88
2018-10-21T16:41:09.303Z,77941.89
2018-10-21T16:43:36.180Z,77947.89
2018-10-21T16:46:03.843Z,77945.89
2018-10-21T16:48:30.782Z,77946.89
2018-10-21T16:50:58.589Z,77943.89
2018-10-21T16:53:25.587Z,77945.89
2018-10-21T16:55:53.430Z,77948.89
2018-10-21T16:58:20.266Z,77948.89
2018-10-21T17:00:48.149Z,77948.89
2018-10-21T17:03:16.041Z,77951.89
2018-10-21T17:05:43.740Z,77952.90
2018-10-21T17:08:11.625Z,77956.91
2018-10-21T17:10:39.591Z,77955.91
2018-10-21T17:13:07.359Z,77955.91
2018-10-21T17:15:34.260Z,77959.91
2018-10-21T17:18:01.107Z,77956.91
2018-10-21T17:20:28.737Z,77950.89
2018-10-21T17:22:56.531Z,77949.89
2018-10-21T17:25:24.181Z,77949.89
2018-10-21T17:27:52.092Z,77947.89
2018-10-21T17:30:18.991Z,77944.89
2018-10-21T17:32:46.143Z,77950.89
2018-10-21T17:35:14.038Z,77949.89
2018-10-21T17:37:41.292Z,77948.89
2018-10-21T17:40:08.873Z,77947.89
2018-10-21T17:42:35.739Z,77952.90
2018-10-21T17:45:02.576Z,77949.89
2018-10-21T17:47:29.388Z,77955.91
2018-10-21T17:49:56.529Z,77954.90
2018-10-21T17:52:24.348Z,77961.91
2018-10-21T17:54:52.124Z,77959.91
2018-10-21T17:57:19.989Z,77960.91
2018-10-21T17:59:47.812Z,77957.91
2018-10-21T18:02:16.865Z,77954.90
2018-10-21T18:04:44.494Z,77959.91
2018-10-21T18:07:12.326Z,77965.91
2018-10-21T18:09:40.114Z,77960.91
2018-10-21T18:12:07.628Z,77955.91
2018-10-21T18:14:35.565Z,77957.91
2018-10-21T18:17:03.707Z,77958.91
2018-10-21T18:19:31.484Z,77959.91
2018-10-21T18:21:59.279Z,77961.91
2018-10-21T18:24:27.113Z,77963.91
2018-10-21T18:26:54.960Z,77962.91
2018-10-21T18:29:22.771Z,77963.91
2018-10-21T18:31:49.620Z,77963.91
2018-10-21T18:34:16.603Z,77955.91
2018-10-21T18:36:45.000Z,77957.91
2018-10-21T18:39:12.856Z,77965.91
2018-10-21T18:41:40.714Z,77961.91
2018-10-21T18:44:08.216Z,77958.91
2018-10-21T18:46:36.073Z,77959.91
2018-10-21T18:49:02.978Z,77953.90
2018-10-21T18:51:29.858Z,77956.91
2018-10-21T18:53:56.690Z,77957.91
2018-10-21T18:56:24.431Z,77961.91
2018-10-21T18:58:52.226Z,77963.91
2018-10-21T19:01:19.076Z,77965.91
2018-10-21T19:03:45.968Z,77965.91
2018-10-21T19:06:12.873Z,77962.91
2018-10-21T19:08:39.747Z,77962.91
2018-10-21T19:11:06.595Z,77958.91
2018-10-21T19:13:33.638Z,77955.91
2018-10-21T19:16:00.365Z,77954.90
2018-10-21T19:18:27.227Z,77955.91
2018-10-21T19:20:54.084Z,77950.89
2018-10-21T19:23:20.921Z,77951.89
2018-10-21T19:25:47.771Z,77955.91
2018-10-21T19:28:15.551Z,77959.91
2018-10-21T19:30:42.454Z,77961.91
2018-10-21T19:33:10.390Z,77955.91
2018-10-21T19:35:38.201Z,77957.91
2018-10-21T19:38:05.083Z,77976.92
2018-10-21T19:40:32.924Z,77970.92
2018-10-21T19:42:59.772Z,77965.91
2018-10-21T19:45:26.706Z,77962.91
2018-10-21T19:47:54.430Z,77963.91
2018-10-21T19:50:22.245Z,77968.92
2018-10-21T19:52:49.912Z,77962.91
2018-10-21T19:55:16.895Z,77962.91
2018-10-21T19:57:44.548Z,77956.91
2018-10-21T20:00:14.156Z,77961.91
2018-10-21T20:02:42.307Z,77958.91
2018-10-21T20:05:09.659Z,77959.91
2018-10-21T20:07:36.521Z,77957.91
2018-10-21T20:10:03.797Z,77951.89
2018-10-21T20:12:30.631Z,77950.89
2018-10-21T20:14:58.515Z,77953.90
2018-10-21T20:17:25.407Z,77951.89
2018-10-21T20:19:52.297Z,77956.91
2018-10-21T20:22:20.111Z,77962.91
2018-10-21T20:24:46.945Z,77958.91
2018-10-21T20:27:15.622Z,77956.91
2018-10-21T20:29:42.464Z,77956.91
2018-10-21T20:32:09.307Z,77950.89
2018-10-21T20:34:36.190Z,77952.90
2018-10-21T20:37:03.021Z,77952.90
2018-10-21T20:39:29.826Z,77953.90
2018-10-21T20:41:56.860Z,77950.89
2018-10-21T20:44:24.517Z,77950.89
2018-10-21T21:03:29.742Z,77969.92
2018-10-21T21:05:56.616Z,77965.91
2018-10-21T21:08:23.567Z,77960.91
2018-10-21T21:10:50.359Z,77958.91
2018-10-21T21:13:17.192Z,77956.91
2018-10-21T21:15:44.925Z,77952.90
2018-10-21T21:18:12.799Z,77952.90
2018-10-21T21:20:40.722Z,77960.91
2018-10-21T21:23:08.497Z,77961.91
2018-10-21T21:25:36.155Z,77961.91
2018-10-21T21:28:04.741Z,77957.91
2018-10-21T21:30:32.524Z,77964.91
2018-10-21T21:32:59.449Z,77960.91
2018-10-21T21:35:27.315Z,77960.91
2018-10-21T21:37:55.119Z,77963.91
2018-10-21T21:40:21.959Z,77965.91
2018-10-21T21:42:48.813Z,77963.91
2018-10-21T21:45:16.452Z,77962.91
2018-10-21T21:47:45.306Z,77962.91
2018-10-21T21:50:12.145Z,77956.91
2018-10-21T21:52:39.994Z,77960.91
2018-10-21T21:55:06.834Z,77968.92
2018-10-21T21:57:34.752Z,77970.92
2018-10-21T22:00:02.611Z,77969.92
2018-10-21T22:02:29.473Z,77964.91
2018-10-21T22:04:56.663Z,77957.91
2018-10-21T22:07:23.540Z,77959.91
2018-10-21T22:09:50.354Z,77956.91
2018-10-21T22:12:18.183Z,77943.89
2018-10-21T22:14:45.735Z,77947.89
2018-10-21T22:17:12.637Z,77944.89
2018-10-21T22:19:39.469Z,77947.89
2018-10-21T22:22:06.358Z,77946.89
2018-10-21T22:24:34.215Z,77945.89
2018-10-21T22:27:01.073Z,77945.89
2018-10-21T22:29:28.940Z,77941.89
2018-10-21T22:31:56.724Z,77939.88
2018-10-21T22:34:24.399Z,77937.88
2018-10-21T22:36:51.324Z,77938.88
2018-10-21T22:39:18.232Z,77940.88
2018-10-21T22:41:52.011Z,77943.89
2018-10-21T22:44:18.882Z,77941.89
2018-10-21T22:46:46.722Z,77939.88
2018-10-21T22:49:14.695Z,77941.89
2018-10-21T22:51:41.558Z,77945.89
2018-10-21T22:54:09.307Z,77941.89
2018-10-21T22:56:37.148Z,77942.89
2018-10-21T22:59:05.051Z,77945.89
2018-10-21T23:01:32.798Z,77942.89
2018-10-21T23:03:59.705Z,77939.88
2018-10-21T23:06:27.548Z,77933.88
2018-10-21T23:08:55.299Z,77934.88
2018-10-21T23:11:22.129Z,77933.88
2018-10-21T23:13:48.980Z,77935.88
2018-10-21T23:16:16.636Z,77933.88
2018-10-21T23:18:44.659Z,77932.88
2018-10-21T23:21:11.507Z,77931.88
2018-10-21T23:23:38.388Z,77928.88
2018-10-21T23:26:05.278Z,77926.87
2018-10-21T23:28:32.159Z,77919.86
2018-10-21T23:30:59.126Z,77923.87
2018-10-21T23:33:25.975Z,77923.87
2018-10-21T23:35:53.818Z,77917.86
2018-10-21T23:38:20.649Z,77914.86
2018-10-21T23:40:48.400Z,77918.86
2018-10-21T23:43:15.239Z,77918.86
2018-10-21T23:45:42.908Z,77923.87
2018-10-21T23:48:10.369Z,77923.87
2018-10-21T23:50:38.100Z,77919.86
2018-10-21T23:53:05.053Z,77917.86
2018-10-21T23:55:32.893Z,77919.86
2018-10-21T23:58:00.715Z,77921.86
